createdAt,value
2022-07-29T00:00:02.530Z,27.75
2022-07-29T00:03:07.397Z,27.68
2022-07-29T00:06:10.545Z,27.65
2022-07-29T00:09:13.750Z,27.60
2022-07-29T00:12:16.962Z,27.68
2022-07-29T00:15:28.465Z,27.85
2022-07-29T00:18:33.254Z,27.97
2022-07-29T00:21:36.419Z,28.04
2022-07-29T00:24:39.495Z,28.13
2022-07-29T00:27:42.611Z,28.19
2022-07-29T00:30:45.688Z,28.24
2022-07-29T00:33:50.123Z,28.22
2022-07-29T00:36:52.170Z,28.09
2022-07-29T00:39:55.249Z,27.93
2022-07-29T00:42:58.343Z,27.84
2022-07-29T00:46:02.776Z,27.73
2022-07-29T00:49:08.516Z,27.70
2022-07-29T00:52:12.690Z,27.69
2022-07-29T00:55:20.086Z,27.65
2022-07-29T00:58:23.537Z,27.62
2022-07-29T01:01:26.701Z,27.65
2022-07-29T01:04:31.939Z,27.76
2022-07-29T01:07:37.116Z,27.89
2022-07-29T01:10:42.095Z,27.98
2022-07-29T01:13:45.924Z,28.10
2022-07-29T01:16:55.483Z,28.13
2022-07-29T01:20:06.066Z,28.20
2022-07-29T01:23:47.601Z,28.23
2022-07-29T01:26:54.595Z,28.10
2022-07-29T01:30:01.989Z,27.93
2022-07-29T01:33:39.085Z,27.84
2022-07-29T01:36:52.916Z,27.78
2022-07-29T01:39:59.475Z,27.68
2022-07-29T01:43:10.097Z,27.60
2022-07-29T01:46:20.536Z,27.55
2022-07-29T01:49:29.392Z,27.49
2022-07-29T01:52:38.713Z,27.58
2022-07-29T01:55:46.930Z,27.73
2022-07-29T01:58:51.733Z,27.85
2022-07-29T02:02:00.630Z,27.94
2022-07-29T02:05:06.117Z,28.00
2022-07-29T02:08:12.026Z,28.04
2022-07-29T02:11:15.431Z,28.04
2022-07-29T02:14:21.023Z,27.99
2022-07-29T02:17:29.485Z,27.86
2022-07-29T02:20:33.911Z,27.72
2022-07-29T02:23:45.250Z,27.66
2022-07-29T02:26:57.550Z,27.52
2022-07-29T02:30:02.929Z,27.46
2022-07-29T02:33:09.157Z,27.41
2022-07-29T02:36:13.203Z,27.40
2022-07-29T02:39:17.732Z,27.34
2022-07-29T02:42:21.807Z,27.41
2022-07-29T02:45:25.007Z,27.55
2022-07-29T02:48:37.007Z,27.62
2022-07-29T02:51:45.359Z,27.57
2022-07-29T02:54:54.206Z,27.34
2022-07-29T02:58:03.071Z,27.23
2022-07-29T03:01:20.999Z,27.53
2022-07-29T03:04:29.552Z,27.64
2022-07-29T03:07:34.031Z,27.59
2022-07-29T03:10:38.944Z,27.45
2022-07-29T03:13:42.432Z,27.51
2022-07-29T03:16:45.766Z,26.96
2022-07-29T03:19:50.716Z,26.66
2022-07-29T03:22:53.843Z,26.67
2022-07-29T03:25:57.389Z,26.89
2022-07-29T03:29:00.453Z,27.07
2022-07-29T03:32:07.883Z,26.88
2022-07-29T03:35:13.020Z,27.05
2022-07-29T03:38:16.076Z,27.12
2022-07-29T03:41:22.406Z,27.02
2022-07-29T03:44:28.023Z,26.89
2022-07-29T03:47:50.175Z,27.03
2022-07-29T03:50:56.258Z,27.01
2022-07-29T03:53:59.429Z,26.92
2022-07-29T03:57:04.113Z,26.62
2022-07-29T04:00:08.924Z,26.38
2022-07-29T04:03:12.573Z,26.12
2022-07-29T04:06:20.445Z,26.15
2022-07-29T04:09:23.602Z,26.21
2022-07-29T04:12:26.745Z,26.14
2022-07-29T04:15:31.238Z,26.35
2022-07-29T04:18:34.941Z,26.45
2022-07-29T04:21:40.989Z,26.70
2022-07-29T04:24:44.606Z,26.77
2022-07-29T04:31:16.498Z,26.99
2022-07-29T04:34:20.221Z,26.87
2022-07-29T04:37:23.502Z,26.84
2022-07-29T04:40:26.796Z,26.84
2022-07-29T04:43:30.039Z,27.00
2022-07-29T04:46:41.550Z,26.97
2022-07-29T04:49:45.038Z,27.07
2022-07-29T04:52:48.189Z,26.86
2022-07-29T04:55:51.319Z,26.91
2022-07-29T04:58:54.761Z,26.90
2022-07-29T05:01:59.310Z,26.72
2022-07-29T05:05:02.439Z,26.13
2022-07-29T05:08:05.924Z,25.88
2022-07-29T05:11:11.686Z,25.73
2022-07-29T05:14:16.326Z,25.52
2022-07-29T05:17:21.131Z,25.43
2022-07-29T05:20:29.203Z,25.28
2022-07-29T05:23:32.289Z,25.42
2022-07-29T05:26:35.316Z,25.52
2022-07-29T05:29:44.438Z,25.74
2022-07-29T05:32:50.415Z,25.80
2022-07-29T05:35:57.270Z,25.67
2022-07-29T05:39:03.637Z,25.86
2022-07-29T05:42:10.666Z,26.17
2022-07-29T05:45:13.848Z,26.39
2022-07-29T05:48:18.315Z,26.57
2022-07-29T05:51:21.617Z,26.58
2022-07-29T05:54:24.685Z,26.80
2022-07-29T05:57:27.782Z,26.95
2022-07-29T06:00:31.232Z,26.97
2022-07-29T06:03:35.729Z,27.07
2022-07-29T06:06:38.772Z,27.07
2022-07-29T06:09:41.933Z,27.00
2022-07-29T06:12:45.009Z,27.09
2022-07-29T06:15:48.075Z,26.92
2022-07-29T06:18:53.205Z,27.08
2022-07-29T06:21:56.367Z,27.30
2022-07-29T06:24:59.377Z,27.31
2022-07-29T06:28:02.786Z,27.01
2022-07-29T06:31:05.959Z,26.60
2022-07-29T06:34:13.813Z,26.90
2022-07-29T06:37:18.675Z,27.04
2022-07-29T06:40:40.016Z,26.85
2022-07-29T06:43:52.524Z,26.89
2022-07-29T06:46:57.857Z,27.03
2022-07-29T06:50:02.341Z,27.16
2022-07-29T06:53:10.778Z,27.19
2022-07-29T06:56:14.997Z,27.38
2022-07-29T06:59:18.050Z,27.43
2022-07-29T07:02:21.299Z,27.49
2022-07-29T07:05:25.806Z,27.54
2022-07-29T07:08:29.070Z,27.50
2022-07-29T07:11:32.244Z,27.55
2022-07-29T07:14:35.327Z,27.60
2022-07-29T07:17:38.745Z,27.64
2022-07-29T07:20:43.382Z,27.45
2022-07-29T07:23:46.480Z,27.30
2022-07-29T07:26:49.824Z,27.27
2022-07-29T07:29:52.896Z,27.20
2022-07-29T07:32:56.370Z,27.12
2022-07-29T07:36:00.917Z,27.14
2022-07-29T07:39:04.688Z,27.17
2022-07-29T07:42:07.959Z,27.19
2022-07-29T07:45:13.914Z,27.35
2022-07-29T07:48:19.710Z,27.60
2022-07-29T07:51:24.168Z,27.73
2022-07-29T07:54:27.345Z,27.81
2022-07-29T07:57:30.433Z,28.00
2022-07-29T08:00:33.735Z,27.89
2022-07-29T08:03:37.111Z,28.01
2022-07-29T08:06:41.579Z,27.97
2022-07-29T08:09:44.586Z,28.00
2022-07-29T08:12:47.683Z,28.07
2022-07-29T08:15:58.728Z,27.96
2022-07-29T08:19:02.171Z,27.80
2022-07-29T08:22:14.135Z,27.71
2022-07-29T08:25:18.979Z,27.71
2022-07-29T08:28:25.748Z,27.74
2022-07-29T08:31:29.193Z,27.87
2022-07-29T08:34:33.016Z,27.82
2022-07-29T08:37:37.519Z,27.97
2022-07-29T08:40:41.474Z,28.25
2022-07-29T08:43:44.590Z,28.47
2022-07-29T08:46:48.159Z,28.61
2022-07-29T08:49:51.295Z,28.58
2022-07-29T08:52:59.747Z,28.68
2022-07-29T08:56:04.195Z,28.85
2022-07-29T08:59:08.031Z,28.93
2022-07-29T09:02:22.930Z,28.98
2022-07-29T09:05:26.544Z,29.01
2022-07-29T09:08:32.786Z,28.95
2022-07-29T09:11:36.406Z,28.85
2022-07-29T09:14:39.696Z,28.62
2022-07-29T09:17:43.812Z,28.68
2022-07-29T09:21:11.802Z,28.71
2022-07-29T09:24:16.932Z,28.37
2022-07-29T09:27:26.972Z,28.65
2022-07-29T09:30:31.842Z,28.84
2022-07-29T09:33:40.401Z,29.01
2022-07-29T09:36:44.602Z,29.10
2022-07-29T09:39:49.215Z,29.09
2022-07-29T09:42:53.921Z,29.15
2022-07-29T09:45:57.227Z,29.26
2022-07-29T09:49:11.196Z,29.33
2022-07-29T09:52:14.359Z,29.33
2022-07-29T09:55:20.158Z,29.33
2022-07-29T09:58:24.405Z,29.36
2022-07-29T10:01:30.405Z,29.31
2022-07-29T10:04:41.437Z,29.18
2022-07-29T10:07:53.678Z,29.20
2022-07-29T10:11:12.362Z,29.10
2022-07-29T10:14:16.626Z,29.08
2022-07-29T10:17:20.791Z,29.01
2022-07-29T10:20:24.820Z,28.95
2022-07-29T10:23:28.614Z,29.05
2022-07-29T10:26:33.442Z,29.14
2022-07-29T10:29:37.217Z,29.24
2022-07-29T10:33:01.218Z,29.31
2022-07-29T10:36:24.499Z,29.31
2022-07-29T10:39:45.190Z,29.37
2022-07-29T10:42:55.968Z,29.39
2022-07-29T10:46:02.827Z,29.44
2022-07-29T10:49:15.748Z,29.34
2022-07-29T10:52:20.600Z,29.18
2022-07-29T10:55:35.727Z,29.11
2022-07-29T10:58:41.027Z,29.07
2022-07-29T11:01:46.416Z,29.03
2022-07-29T11:05:04.357Z,29.00
2022-07-29T11:08:28.058Z,28.97
2022-07-29T11:11:36.741Z,28.88
2022-07-29T11:15:00.314Z,28.83
2022-07-29T11:18:14.942Z,28.88
2022-07-29T11:21:55.162Z,29.05
2022-07-29T11:25:16.759Z,29.14
2022-07-29T11:28:25.489Z,29.28
2022-07-29T11:31:39.784Z,29.28
2022-07-29T11:34:43.171Z,29.31
2022-07-29T11:37:52.495Z,29.34
2022-07-29T11:41:22.068Z,29.34
2022-07-29T11:44:57.051Z,29.37
2022-07-29T11:48:28.864Z,29.27
2022-07-29T11:54:57.319Z,29.11
2022-07-29T11:58:04.139Z,29.03
2022-07-29T12:01:28.167Z,28.91
2022-07-29T12:04:32.772Z,28.90
2022-07-29T12:07:36.535Z,28.85
2022-07-29T12:10:40.009Z,28.87
2022-07-29T12:13:43.102Z,29.01
2022-07-29T12:16:46.435Z,29.06
2022-07-29T12:19:51.044Z,29.19
2022-07-29T12:22:55.571Z,29.31
2022-07-29T12:26:00.720Z,29.34
2022-07-29T12:29:08.504Z,29.41
2022-07-29T12:32:19.757Z,29.43
2022-07-29T12:35:25.569Z,29.58
2022-07-29T12:38:29.130Z,29.49
2022-07-29T12:41:32.651Z,29.41
2022-07-29T12:44:50.179Z,29.31
2022-07-29T12:47:54.290Z,29.21
2022-07-29T12:51:00.495Z,29.04
2022-07-29T12:54:11.442Z,29.05
2022-07-29T12:57:20.129Z,29.01
2022-07-29T13:00:26.025Z,28.97
2022-07-29T13:03:35.943Z,29.00
2022-07-29T13:06:45.691Z,29.01
2022-07-29T13:09:49.580Z,29.15
2022-07-29T13:13:10.644Z,29.29
2022-07-29T13:16:14.032Z,29.38
2022-07-29T13:19:17.257Z,29.44
2022-07-29T13:22:23.538Z,29.47
2022-07-29T13:25:28.703Z,29.50
2022-07-29T13:28:31.820Z,29.56
2022-07-29T13:31:34.993Z,29.53
2022-07-29T13:34:38.273Z,29.46
2022-07-29T13:37:42.851Z,29.39
2022-07-29T13:40:45.978Z,29.29
2022-07-29T13:43:50.130Z,29.19
2022-07-29T13:46:53.242Z,29.14
2022-07-29T13:49:56.374Z,29.05
2022-07-29T13:53:00.872Z,29.04
2022-07-29T13:56:04.099Z,28.94
2022-07-29T13:59:07.212Z,28.93
2022-07-29T14:02:11.526Z,29.08
2022-07-29T14:05:14.665Z,29.22
2022-07-29T14:08:19.207Z,29.33
2022-07-29T14:11:22.553Z,29.44
2022-07-29T14:14:25.709Z,29.49
2022-07-29T14:17:28.831Z,29.55
2022-07-29T14:20:32.028Z,29.54
2022-07-29T14:23:36.582Z,29.38
2022-07-29T14:26:39.679Z,29.40
2022-07-29T14:29:42.796Z,29.44
2022-07-29T14:32:45.897Z,29.33
2022-07-29T14:35:49.449Z,29.16
2022-07-29T14:38:53.888Z,29.14
2022-07-29T14:41:57.200Z,29.18
2022-07-29T14:45:01.427Z,29.12
2022-07-29T14:48:04.602Z,29.07
2022-07-29T14:51:07.720Z,29.01
2022-07-29T14:54:12.277Z,29.14
2022-07-29T14:57:15.457Z,29.21
2022-07-29T15:00:19.299Z,29.37
2022-07-29T15:03:24.203Z,29.41
2022-07-29T15:06:27.871Z,29.54
2022-07-29T15:09:32.528Z,29.60
2022-07-29T15:12:39.436Z,29.64
2022-07-29T15:15:42.924Z,29.66
2022-07-29T15:18:46.306Z,29.71
2022-07-29T15:21:49.390Z,29.60
2022-07-29T15:24:53.881Z,29.44
2022-07-29T15:28:01.151Z,29.34
2022-07-29T15:31:04.888Z,29.28
2022-07-29T15:34:07.940Z,29.20
2022-07-29T15:37:11.992Z,29.17
2022-07-29T15:40:16.701Z,29.06
2022-07-29T15:43:19.877Z,29.03
2022-07-29T15:46:40.382Z,29.03
2022-07-29T15:49:46.606Z,29.19
2022-07-29T15:52:52.389Z,29.35
2022-07-29T15:55:56.949Z,29.46
2022-07-29T15:59:00.328Z,29.48
2022-07-29T16:02:04.213Z,29.58
2022-07-29T16:05:09.265Z,29.62
2022-07-29T16:08:12.738Z,29.66
2022-07-29T16:11:17.287Z,29.65
2022-07-29T16:14:21.031Z,29.58
2022-07-29T16:17:25.590Z,29.45
2022-07-29T16:20:28.758Z,29.33
2022-07-29T16:23:32.308Z,29.19
2022-07-29T16:26:37.361Z,29.10
2022-07-29T16:29:40.547Z,29.07
2022-07-29T16:32:43.620Z,29.00
2022-07-29T16:35:46.778Z,29.02
2022-07-29T16:38:52.181Z,28.82
2022-07-29T16:42:00.013Z,29.01
2022-07-29T16:45:04.554Z,29.00
2022-07-29T16:48:08.659Z,29.00
2022-07-29T16:51:14.514Z,29.04
2022-07-29T16:54:17.836Z,29.20
2022-07-29T16:57:22.335Z,29.32
2022-07-29T17:00:25.427Z,29.32
2022-07-29T17:03:28.516Z,29.51
2022-07-29T17:06:32.736Z,29.56
2022-07-29T17:09:35.864Z,29.65
2022-07-29T17:12:41.712Z,29.60
2022-07-29T17:15:44.865Z,29.65
2022-07-29T17:18:48.215Z,29.69
2022-07-29T17:21:51.431Z,29.71
2022-07-29T17:24:55.001Z,29.69
2022-07-29T17:28:01.060Z,29.73
2022-07-29T17:31:04.528Z,29.75
2022-07-29T17:34:08.821Z,29.69
2022-07-29T17:37:13.145Z,29.72
2022-07-29T17:40:16.234Z,29.69
2022-07-29T17:43:20.719Z,29.61
2022-07-29T17:46:27.280Z,29.52
2022-07-29T17:49:30.503Z,29.41
2022-07-29T17:52:33.599Z,29.31
2022-07-29T17:55:36.760Z,29.16
2022-07-29T17:58:41.276Z,29.02
2022-07-29T18:01:44.442Z,28.84
2022-07-29T18:04:50.603Z,28.95
2022-07-29T18:07:55.826Z,28.95
2022-07-29T18:10:59.045Z,29.03
2022-07-29T18:14:03.530Z,29.13
2022-07-29T18:17:06.722Z,29.11
2022-07-29T18:20:10.892Z,29.19
2022-07-29T18:23:14.508Z,29.17
2022-07-29T18:26:17.884Z,29.21
2022-07-29T18:29:22.377Z,29.20
2022-07-29T18:32:28.832Z,29.18
2022-07-29T18:35:33.283Z,28.97
2022-07-29T18:38:36.377Z,28.85
2022-07-29T18:41:49.845Z,28.72
2022-07-29T18:44:54.885Z,28.65
2022-07-29T18:47:58.015Z,28.61
2022-07-29T18:51:01.168Z,28.54
2022-07-29T18:54:05.482Z,28.52
2022-07-29T18:57:54.117Z,28.56
2022-07-29T19:00:33.355Z,28.72
2022-07-29T19:03:36.611Z,28.83
2022-07-29T19:06:40.832Z,28.90
2022-07-29T19:09:49.147Z,28.96
2022-07-29T19:12:52.867Z,29.05
2022-07-29T19:15:57.437Z,29.04
2022-07-29T19:19:01.203Z,29.11
2022-07-29T19:22:04.288Z,29.23
2022-07-29T19:25:09.349Z,29.25
2022-07-29T19:28:12.411Z,29.19
2022-07-29T19:31:17.010Z,29.14
2022-07-29T19:34:20.165Z,29.11
2022-07-29T19:37:23.248Z,29.03
2022-07-29T19:40:27.183Z,28.95
2022-07-29T19:43:52.242Z,28.87
2022-07-29T19:46:54.977Z,28.83
2022-07-29T19:49:58.127Z,28.82
2022-07-29T19:53:01.883Z,28.88
2022-07-29T19:56:05.818Z,29.04
2022-07-29T19:59:11.992Z,29.18
2022-07-29T20:02:17.662Z,29.28
2022-07-29T20:05:20.816Z,29.35
2022-07-29T20:08:23.913Z,29.37
2022-07-29T20:11:29.726Z,29.39
2022-07-29T20:14:32.888Z,29.42
2022-07-29T20:17:39.772Z,29.35
2022-07-29T20:20:43.567Z,29.26
2022-07-29T20:23:47.025Z,29.14
2022-07-29T20:26:50.975Z,28.98
2022-07-29T20:29:54.151Z,28.90
2022-07-29T20:32:58.704Z,28.70
2022-07-29T20:36:01.900Z,28.54
2022-07-29T20:39:05.302Z,28.52
2022-07-29T20:42:08.556Z,28.44
2022-07-29T20:45:11.949Z,28.48
2022-07-29T20:48:16.445Z,28.54
2022-07-29T20:51:19.503Z,28.68
2022-07-29T20:54:22.541Z,28.75
2022-07-29T20:57:39.319Z,28.81
2022-07-29T21:00:42.981Z,28.82
2022-07-29T21:03:47.785Z,28.75
2022-07-29T21:06:50.859Z,28.80
2022-07-29T21:09:54.322Z,28.78
2022-07-29T21:12:57.502Z,28.59
2022-07-29T21:16:04.279Z,28.51
2022-07-29T21:19:10.864Z,28.47
2022-07-29T21:22:14.055Z,28.42
2022-07-29T21:25:17.131Z,28.35
2022-07-29T21:28:35.697Z,28.33
2022-07-29T21:31:38.765Z,28.33
2022-07-29T21:34:43.227Z,28.27
2022-07-29T21:37:46.293Z,28.34
2022-07-29T21:40:52.279Z,28.47
2022-07-29T21:43:55.738Z,28.56
2022-07-29T21:47:01.798Z,28.64
2022-07-29T21:50:07.422Z,28.77
2022-07-29T21:53:13.856Z,28.82
2022-07-29T21:56:18.992Z,28.85
2022-07-29T21:59:22.139Z,28.84
2022-07-29T22:02:25.178Z,28.78
2022-07-29T22:05:30.133Z,28.60
2022-07-29T22:08:33.211Z,28.49
2022-07-29T22:11:36.997Z,28.40
2022-07-29T22:14:40.058Z,28.36
2022-07-29T22:17:43.184Z,28.28
2022-07-29T22:20:47.559Z,28.24
2022-07-29T22:23:50.598Z,28.19
2022-07-29T22:26:53.618Z,28.19
2022-07-29T22:29:56.678Z,28.20
2022-07-29T22:32:59.754Z,28.29
2022-07-29T22:36:04.229Z,28.42
2022-07-29T22:39:07.639Z,28.56
2022-07-29T22:42:10.716Z,28.60
2022-07-29T22:45:13.810Z,28.68
2022-07-29T22:48:16.987Z,28.63
2022-07-29T22:51:21.579Z,28.65
2022-07-29T22:54:24.678Z,28.66
2022-07-29T22:57:27.843Z,28.52
2022-07-29T23:00:31.699Z,28.41
2022-07-29T23:03:34.872Z,28.35
2022-07-29T23:06:39.461Z,28.25
2022-07-29T23:09:42.555Z,28.19
2022-07-29T23:12:45.628Z,28.18
2022-07-29T23:15:48.744Z,28.11
2022-07-29T23:18:52.752Z,28.08
2022-07-29T23:21:57.350Z,28.04
2022-07-29T23:25:00.482Z,28.17
2022-07-29T23:28:03.678Z,28.24
2022-07-29T23:31:06.836Z,28.36
2022-07-29T23:34:10.026Z,28.40
2022-07-29T23:37:14.483Z,28.45
2022-07-29T23:40:17.585Z,28.43
2022-07-29T23:43:20.659Z,28.46
2022-07-29T23:46:24.190Z,28.50
2022-07-29T23:49:27.414Z,28.35
2022-07-29T23:52:32.037Z,28.24
2022-07-29T23:55:37.031Z,28.15
2022-07-29T23:58:42.012Z,28.09
